Time;durP1;ratioP1;P1;durP2;ratioP2;P2;SDS_P1;SDS_P2;PMS_P1;PMS_P2;Temp;Humidity;BMP_temperature;BMP_pressure;BME280_temperature;BME280_humidity;BME280_pressure;Samples;Min_cycle;Max_cycle;Signal;HPM_P1;HPM_P2
2023/05/26 00:02:19;;;;;;;41.17;22.75;;;;;;;30.59;74.89;100852.25;5117068;27;65788;-38
2023/05/26 00:04:50;;;;;;;36.90;20.88;;;;;;;30.79;75.69;100889.19;5110741;27;70628;-39
2023/05/26 00:07:21;;;;;;;29.00;19.42;;;;;;;30.79;76.09;100884.59;5117221;27;65671;-39
2023/05/26 00:09:52;;;;;;;33.47;19.63;;;;;;;30.87;77.42;100897.03;5111345;27;69956;-40
2023/05/26 00:12:23;;;;;;;36.90;17.95;;;;;;;30.96;77.16;100901.16;5111704;27;66259;-37
2023/05/26 00:14:54;;;;;;;31.20;18.30;;;;;;;30.98;77.63;100904.47;5108281;27;69576;-40
2023/05/26 00:17:24;;;;;;;36.90;19.77;;;;;;;31.03;77.24;100917.34;5108134;27;66649;-38
2023/05/26 00:19:59;;;;;;;36.47;20.40;;;;;;;31.04;78.23;100914.44;5112726;27;69962;-41
2023/05/26 00:22:30;;;;;;;31.92;21.33;;;;;;;31.10;78.23;100924.38;5106716;27;66713;-41
2023/05/26 00:25:03;;;;;;;36.47;21.67;;;;;;;31.12;77.28;100921.44;5103741;27;69774;-38
2023/05/26 00:27:33;;;;;;;;;;;;;;;30.98;79.29;100925.31;5119117;27;65293;-39
2023/05/26 00:30:05;;;;;;;63.25;26.23;;;;;;;31.23;78.57;100933.44;5115859;27;70468;-40
2023/05/26 00:32:36;;;;;;;63.80;28.90;;;;;;;31.25;77.16;100925.91;5113552;27;65717;-38
2023/05/26 00:35:08;;;;;;;70.53;28.92;;;;;;;31.31;78.32;100935.88;5110818;27;69874;-39
2023/05/26 00:37:40;;;;;;;58.42;26.30;;;;;;;31.27;78.17;100929.25;5111670;27;66003;-39
2023/05/26 00:40:11;;;;;;;46.75;24.67;;;;;;;31.36;77.91;100944.19;5102022;27;69935;-40
2023/05/26 00:42:42;;;;;;;36.03;20.85;;;;;;;31.40;77.09;100956.28;5112749;27;66408;-42
2023/05/26 00:45:13;;;;;;;34.43;20.03;;;;;;;31.38;76.80;100947.53;5104126;27;70024;-40
2023/05/26 00:47:44;;;;;;;27.95;16.73;;;;;;;31.37;76.22;100956.69;5103080;27;66396;-40
2023/05/26 00:50:16;;;;;;;26.17;17.87;;;;;;;31.42;76.47;100956.84;5115619;27;69286;-39
2023/05/26 00:52:47;;;;;;;31.42;18.48;;;;;;;31.43;76.70;100960.44;5108296;27;66204;-41
2023/05/26 00:55:20;;;;;;;26.92;15.80;;;;;;;30.71;76.11;100855.06;5105996;27;69835;-39
2023/05/26 00:57:51;;;;;;;38.42;18.95;;;;;;;31.44;76.84;100968.31;5108095;27;66082;-39
2023/05/26 01:00:26;;;;;;;44.20;19.00;;;;;;;31.43;75.64;100949.59;5118931;27;43504;-40
2023/05/26 01:02:58;;;;;;;39.10;17.67;;;;;;;30.71;76.23;100830.69;5111621;27;65391;-39
2023/05/26 01:05:31;;;;;;;30.88;17.02;;;;;;;31.53;75.88;100966.97;5119535;27;70410;-39
2023/05/26 01:08:02;;;;;;;25.73;16.63;;;;;;;31.52;75.33;100965.31;5114472;27;65459;-40
2023/05/26 01:10:34;;;;;;;27.88;15.65;;;;;;;31.52;75.79;100970.75;5098300;27;69957;-39
2023/05/26 01:13:27;;;;;;;24.38;14.30;;;;;;;31.46;75.46;100982.50;5118581;27;66050;-39
2023/05/26 01:16:04;;;;;;;27.92;16.63;;;;;;;31.52;76.05;100968.03;5108878;27;70294;-40
2023/05/26 01:18:36;;;;;;;37.83;15.80;;;;;;;31.62;75.66;100981.06;5110635;27;66695;-40
2023/05/26 01:21:13;;;;;;;46.58;17.63;;;;;;;31.41;76.61;100947.09;5103163;27;70568;-40
2023/05/26 01:24:14;;;;;;;62.00;19.42;;;;;;;31.56;76.80;100987.41;5101048;27;66157;-40
2023/05/26 01:27:23;;;;;;;62.40;18.90;;;;;;;30.78;76.74;100844.19;5101924;27;68864;-40
2023/05/26 01:29:55;;;;;;;53.85;19.00;;;;;;;31.60;76.92;100984.03;5069485;27;66528;-40
2023/05/26 01:32:27;;;;;;;;;;;;;;;31.46;77.90;100993.34;5105770;27;69089;-38
2023/05/26 01:34:57;;;;;;;42.80;17.93;;;;;;;31.65;76.90;100994.22;5105008;27;65497;-39
2023/05/26 01:37:29;;;;;;;34.58;18.95;;;;;;;31.69;77.60;100992.69;5098418;27;68735;-39
2023/05/26 01:40:00;;;;;;;33.47;17.33;;;;;;;31.61;75.24;100993.81;5106760;27;67381;-39
2023/05/26 01:42:35;;;;;;;31.47;17.53;;;;;;;30.90;73.21;100902.03;5122931;27;70129;-39
2023/05/26 01:45:21;;;;;;;30.27;17.55;;;;;;;30.50;71.48;100842.72;5120797;27;66270;-38
2023/05/26 01:48:02;;;;;;;22.50;16.20;;;;;;;31.27;73.69;100967.19;5117068;27;69507;-37
2023/05/26 01:50:46;;;;;;;27.92;16.52;;;;;;;31.19;74.33;100934.94;5122627;27;66580;-38
2023/05/26 01:53:23;;;;;;;31.95;17.27;;;;;;;31.39;75.46;100960.00;5110628;27;70396;-38
2023/05/26 01:55:58;;;;;;;26.05;16.70;;;;;;;31.55;75.67;100983.03;5095539;27;66837;-39
2023/05/26 01:58:30;;;;;;;34.80;17.73;;;;;;;31.65;76.20;100994.22;5104443;27;70552;-39
2023/05/26 02:01:04;;;;;;;32.10;15.88;;;;;;;31.66;76.63;100989.63;5092583;27;65738;-36
2023/05/26 02:03:36;;;;;;;22.25;15.13;;;;;;;31.59;76.18;100973.38;5121515;27;70256;-41
2023/05/26 02:06:07;;;;;;;27.95;16.38;;;;;;;31.74;76.24;100994.75;5107621;27;66663;-38
2023/05/26 02:08:39;;;;;;;24.10;16.65;;;;;;;31.71;75.71;100978.94;5109873;27;70414;-41
2023/05/26 02:11:11;;;;;;;21.10;15.43;;;;;;;31.81;75.74;100984.66;5104708;27;65162;-38
2023/05/26 02:13:42;;;;;;;16.17;14.40;;;;;;;31.81;76.15;100988.19;5114935;27;69833;-37
2023/05/26 02:16:13;;;;;;;22.50;14.27;;;;;;;31.68;75.49;100965.78;5119393;27;66273;-38
2023/05/26 02:18:45;;;;;;;17.73;13.52;;;;;;;31.92;74.00;100981.22;5114269;27;70090;-39
2023/05/26 02:21:16;;;;;;;13.93;11.80;;;;;;;31.95;73.50;100980.78;5105073;27;65856;-41
2023/05/26 02:23:47;;;;;;;16.92;11.73;;;;;;;31.97;73.11;100980.56;5111141;27;70033;-39
2023/05/26 02:26:18;;;;;;;13.75;11.32;;;;;;;32.03;72.57;100977.75;5114494;27;66369;-39
2023/05/26 02:28:55;;;;;;;12.25;11.25;;;;;;;31.97;72.35;100951.53;5110026;27;70155;-40
2023/05/26 02:31:26;;;;;;;12.02;10.88;;;;;;;32.14;72.16;100972.66;5121755;27;66688;-38
2023/05/26 02:34:04;;;;;;;12.43;11.15;;;;;;;32.18;71.84;100974.69;5113233;27;70402;-37
2023/05/26 02:36:37;;;;;;;10.95;9.82;;;;;;;32.15;71.91;100963.44;5109052;27;65894;-38
2023/05/26 02:39:08;;;;;;;11.52;10.43;;;;;;;32.23;71.50;100971.28;5108789;27;69955;-38
2023/05/26 02:41:39;;;;;;;16.67;10.77;;;;;;;32.28;71.21;100963.28;5125626;27;66131;-39
2023/05/26 02:44:13;;;;;;;11.43;10.63;;;;;;;32.30;71.09;100955.75;5114524;27;69763;-39
2023/05/26 02:46:44;;;;;;;10.95;10.05;;;;;;;32.33;70.61;100954.47;5121480;27;65767;-38
2023/05/26 02:49:15;;;;;;;11.47;9.83;;;;;;;32.28;70.48;100936.13;5115964;27;69738;-38
2023/05/26 02:51:46;;;;;;;11.40;10.38;;;;;;;32.35;70.41;100946.94;5106003;27;67502;-39
2023/05/26 02:54:17;;;;;;;10.83;9.97;;;;;;;32.40;70.29;100934.31;5105593;27;70000;-42
2023/05/26 02:56:48;;;;;;;11.73;9.90;;;;;;;32.17;70.43;100897.03;5119473;27;66531;-39
2023/05/26 02:59:19;;;;;;;11.32;10.00;;;;;;;32.46;70.56;100933.44;5111011;27;70121;-40
2023/05/26 03:01:50;;;;;;;11.13;10.00;;;;;;;32.42;70.41;100920.50;5112562;27;66424;-39
2023/05/26 03:04:21;;;;;;;15.68;10.68;;;;;;;32.11;70.42;100861.84;5114779;27;69249;-39
2023/05/26 03:06:52;;;;;;;18.80;11.10;;;;;;;32.57;70.60;100931.81;5110163;27;66305;-39
2023/05/26 03:09:28;;;;;;;18.63;10.98;;;;;;;32.55;70.52;100908.66;5112300;27;70045;-39
2023/05/26 03:11:59;;;;;;;11.52;10.55;;;;;;;32.45;70.50;100882.84;5123271;27;66331;-38
2023/05/26 03:14:31;;;;;;;12.95;11.50;;;;;;;32.70;70.25;100909.06;5123042;27;69899;-38
2023/05/26 03:17:01;;;;;;;17.80;10.55;;;;;;;32.69;69.98;100893.81;5117364;27;65847;-39
2023/05/26 03:19:33;;;;;;;12.40;11.10;;;;;;;32.77;70.03;100900.81;5107171;27;69325;-39
2023/05/26 03:22:04;;;;;;;14.63;11.05;;;;;;;32.67;69.46;100868.78;5110203;27;66584;-39
2023/05/26 03:24:55;;;;;;;15.53;11.23;;;;;;;32.79;69.61;100883.22;5104943;27;70578;-38
2023/05/26 03:27:36;;;;;;;11.27;10.18;;;;;;;32.85;69.49;100892.34;5111106;27;65647;-39
2023/05/26 03:30:09;;;;;;;18.77;10.52;;;;;;;32.72;68.85;100866.19;5105023;27;70585;-38
2023/05/26 03:32:43;;;;;;;11.10;10.00;;;;;;;32.86;68.87;100878.50;5106882;27;66210;-39
2023/05/26 03:35:14;;;;;;;12.77;10.77;;;;;;;32.82;68.96;100877.31;5111714;27;70088;-39
2023/05/26 03:37:46;;;;;;;16.88;10.80;;;;;;;32.69;69.11;100851.19;5106047;27;65205;-41
2023/05/26 03:40:17;;;;;;;15.55;10.35;;;;;;;32.88;69.06;100881.00;5106238;27;69922;-38
2023/05/26 03:42:48;;;;;;;15.50;11.37;;;;;;;32.85;69.44;100893.16;5103562;27;66457;-38
2023/05/26 03:45:19;;;;;;;13.77;10.77;;;;;;;32.92;69.70;100895.75;5106954;27;70171;-38
2023/05/26 03:47:51;;;;;;;30.10;12.68;;;;;;;32.23;70.84;100797.56;5114278;27;66217;-39
2023/05/26 03:50:22;;;;;;;20.65;12.25;;;;;;;32.78;70.74;100889.69;5089582;27;69759;-39
2023/05/26 03:52:53;;;;;;;13.57;12.32;;;;;;;32.72;71.56;100894.19;5110376;27;65777;-41
2023/05/26 03:55:25;;;;;;;17.42;12.15;;;;;;;32.54;71.55;100872.53;5111375;27;70457;-41
2023/05/26 03:57:56;;;;;;;24.88;11.02;;;;;;;32.72;71.59;100896.06;5109779;27;66697;-42
2023/05/26 04:00:30;;;;;;;19.85;12.27;;;;;;;32.49;69.58;100897.66;5117705;27;69634;-40
2023/05/26 04:03:01;;;;;;;21.30;11.60;;;;;;;32.22;68.71;100870.03;5110402;27;65626;-40
2023/05/26 04:05:33;;;;;;;26.35;11.27;;;;;;;32.19;68.05;100869.66;5108480;27;70158;-38
2023/05/26 04:08:03;;;;;;;19.58;10.73;;;;;;;32.31;68.08;100881.38;5113716;27;66155;-40
2023/05/26 04:10:35;;;;;;;22.77;11.37;;;;;;;32.35;68.94;100871.75;5102789;27;69580;-41
2023/05/26 04:13:06;;;;;;;15.80;11.40;;;;;;;31.86;69.24;100783.25;5113908;27;66244;-39
2023/05/26 04:15:37;;;;;;;15.07;10.93;;;;;;;32.33;69.64;100860.28;5109577;27;68955;-39
2023/05/26 04:18:08;;;;;;;17.77;11.38;;;;;;;32.27;70.11;100842.19;5112571;27;66440;-38
2023/05/26 04:20:39;;;;;;;17.83;10.90;;;;;;;32.25;70.76;100828.03;5107829;27;70162;-38
2023/05/26 04:23:10;;;;;;;16.52;10.93;;;;;;;32.39;71.02;100843.06;5105531;27;66227;-38
2023/05/26 04:25:41;;;;;;;23.75;11.32;;;;;;;32.46;71.33;100854.69;5109389;27;69447;-42
2023/05/26 04:28:39;;;;;;;18.30;11.93;;;;;;;32.44;71.04;100828.78;5111264;27;66603;-39
2023/05/26 04:31:28;;;;;;;20.35;11.43;;;;;;;32.35;71.99;100817.44;5111776;27;70406;-38
2023/05/26 04:34:10;;;;;;;17.67;11.07;;;;;;;32.36;72.21;100816.38;5105341;27;66211;-38
2023/05/26 04:37:04;;;;;;;20.50;11.13;;;;;;;32.53;71.91;100835.56;5108769;27;70026;-39
2023/05/26 04:39:35;;;;;;;21.15;11.00;;;;;;;32.55;71.95;100838.88;5108571;27;65834;-41
2023/05/26 04:42:06;;;;;;;16.67;11.85;;;;;;;32.56;71.80;100828.84;5120501;27;71205;-40
2023/05/26 04:44:38;;;;;;;20.65;11.65;;;;;;;32.52;71.86;100816.81;5105518;27;66055;-39
2023/05/26 04:47:09;;;;;;;19.42;12.25;;;;;;;32.60;72.03;100835.47;5111706;27;70538;-39
2023/05/26 04:49:40;;;;;;;25.92;12.07;;;;;;;32.61;72.36;100839.84;5109786;27;65961;-41
2023/05/26 04:52:11;;;;;;;23.25;12.68;;;;;;;32.24;72.71;100772.09;5100265;27;68868;-36
2023/05/26 04:54:42;;;;;;;22.88;12.00;;;;;;;32.66;72.62;100829.94;5116251;27;66228;-38
2023/05/26 04:57:14;;;;;;;31.77;13.90;;;;;;;32.61;71.44;100827.09;5106270;27;70622;-39
2023/05/26 05:00:05;;;;;;;26.52;15.48;;;;;;;32.60;70.78;100830.06;5106652;27;66629;-42
2023/05/26 05:02:37;;;;;;;26.48;13.73;;;;;;;32.52;70.65;100822.25;5103155;27;70390;-39
2023/05/26 05:05:13;;;;;;;25.73;14.55;;;;;;;32.36;68.53;100816.38;5102803;27;66766;-39
2023/05/26 05:07:49;;;;;;;26.42;14.55;;;;;;;32.28;67.60;100805.84;5121059;27;69973;-41
2023/05/26 05:10:20;;;;;;;30.52;13.77;;;;;;;32.04;66.17;100785.97;5104567;27;66366;-40
2023/05/26 05:12:53;;;;;;;38.47;12.37;;;;;;;31.37;64.50;100697.34;5109441;27;70080;-39
2023/05/26 05:15:24;;;;;;;31.70;12.35;;;;;;;31.91;63.40;100803.25;5115529;27;65914;-43
2023/05/26 05:17:58;;;;;;;25.42;11.98;;;;;;;31.75;62.29;100784.84;5109939;27;69944;-38
2023/05/26 05:20:29;;;;;;;18.50;11.10;;;;;;;31.75;61.38;100787.56;5100543;27;64985;-39
2023/05/26 05:23:02;;;;;;;14.82;11.23;;;;;;;31.47;60.22;100756.41;5111478;27;69878;-43
2023/05/26 05:25:33;;;;;;;12.20;10.77;;;;;;;31.57;59.41;100772.16;5092381;27;66218;-40
2023/05/26 05:28:05;;;;;;;22.15;11.27;;;;;;;31.48;58.42;100768.09;5100766;27;69883;-41
2023/05/26 05:30:39;;;;;;;12.57;11.27;;;;;;;31.40;57.56;100755.69;5106702;27;66234;-40
2023/05/26 05:33:13;;;;;;;15.05;10.63;;;;;;;31.32;56.86;100742.41;5082230;27;69183;-40
2023/05/26 05:35:47;;;;;;;12.20;9.85;;;;;;;31.15;56.07;100724.03;5117723;27;65756;-40
2023/05/26 05:38:22;;;;;;;10.55;9.50;;;;;;;31.21;55.54;100718.78;5114208;27;70729;-38
2023/05/26 05:40:53;;;;;;;;;;;;;;;30.93;55.04;100725.53;5110042;27;67018;-39
2023/05/26 05:43:27;;;;;;;10.70;9.63;;;;;;;31.04;54.83;100732.91;5108500;27;68830;-41
2023/05/26 05:45:59;;;;;;;14.15;10.25;;;;;;;31.02;53.76;100737.72;5112839;27;66812;-41
2023/05/26 05:48:54;;;;;;;10.68;9.60;;;;;;;31.00;53.51;100737.13;5106690;27;69626;-38
2023/05/26 05:51:35;;;;;;;9.93;9.02;;;;;;;30.89;52.48;100732.44;5108523;27;65453;-39
2023/05/26 05:54:06;;;;;;;12.00;10.02;;;;;;;30.80;52.84;100728.38;5109247;27;70130;-39
2023/05/26 05:56:37;;;;;;;10.20;9.30;;;;;;;30.88;51.96;100747.03;5106092;27;65648;-38
2023/05/26 05:59:10;;;;;;;9.35;8.55;;;;;;;30.86;51.73;100743.72;5115151;27;69605;-38
2023/05/26 06:01:42;;;;;;;10.05;9.23;;;;;;;30.83;51.62;100733.34;5095304;27;65731;-40
2023/05/26 06:04:13;;;;;;;9.57;8.67;;;;;;;30.78;50.81;100731.25;5106458;27;70557;-38
2023/05/26 06:06:44;;;;;;;9.77;8.43;;;;;;;30.57;50.18;100697.31;5108397;27;66000;-39
2023/05/26 06:09:15;;;;;;;9.17;8.23;;;;;;;30.63;50.44;100704.53;5107023;27;69904;-39
2023/05/26 06:11:46;;;;;;;9.20;8.38;;;;;;;30.65;49.97;100716.00;5103241;27;65580;-42
2023/05/26 06:14:17;;;;;;;8.63;8.05;;;;;;;30.61;49.90;100703.94;5103789;27;69884;-39
2023/05/26 06:16:49;;;;;;;7.95;7.45;;;;;;;30.63;49.53;100723.50;5104828;27;66613;-40
2023/05/26 06:19:20;;;;;;;8.73;8.00;;;;;;;30.65;49.22;100707.88;5107330;27;69478;-39
2023/05/26 06:21:51;;;;;;;8.60;7.50;;;;;;;30.64;49.05;100703.47;5121464;27;66379;-40
2023/05/26 06:24:23;;;;;;;9.32;7.45;;;;;;;30.61;48.56;100687.69;5097675;27;70241;-40
2023/05/26 06:26:53;;;;;;;7.82;7.35;;;;;;;30.57;48.61;100674.84;5116321;27;66063;-40
2023/05/26 06:29:25;;;;;;;7.82;7.00;;;;;;;30.58;48.25;100676.50;5116055;27;70326;-39
2023/05/26 06:31:56;;;;;;;7.82;7.32;;;;;;;30.58;47.95;100671.06;5111142;27;66376;-40
2023/05/26 06:34:32;;;;;;;7.38;6.55;;;;;;;30.55;48.03;100669.63;5110043;27;70321;-38
2023/05/26 06:37:04;;;;;;;7.82;7.22;;;;;;;30.28;48.01;100628.47;5103600;27;65515;-39
2023/05/26 06:39:36;;;;;;;7.75;6.78;;;;;;;30.40;47.32;100648.34;5114890;27;69758;-43
2023/05/26 06:42:14;;;;;;;8.80;6.55;;;;;;;30.40;48.37;100636.69;5097474;27;66137;-39
2023/05/26 06:44:46;;;;;;;10.13;6.32;;;;;;;30.45;47.98;100644.94;5115399;27;70200;-39
2023/05/26 06:47:23;;;;;;;17.58;7.20;;;;;;;30.41;49.71;100638.34;5107040;27;66093;-41
2023/05/26 06:50:09;;;;;;;34.58;7.57;;;;;;;30.47;51.42;100650.97;5103597;27;70430;-40
2023/05/26 06:52:39;;;;;;;20.23;7.80;;;;;;;30.47;50.43;100648.28;5112275;27;66024;-41
2023/05/26 06:55:10;;;;;;;13.30;7.23;;;;;;;30.44;49.79;100643.31;5110686;27;69634;-42
2023/05/26 06:57:41;;;;;;;9.65;7.30;;;;;;;30.17;49.03;100608.38;5104057;27;65375;-39
2023/05/26 07:00:13;;;;;;;11.77;7.00;;;;;;;30.14;49.09;100600.66;5104976;27;69932;-39
2023/05/26 07:02:45;;;;;;;14.27;7.57;;;;;;;30.36;50.23;100640.88;5104837;27;66660;-41
2023/05/26 07:05:26;;;;;;;;;;;;;;;30.33;56.49;100641.34;5111584;27;69394;-41
2023/05/26 07:07:58;;;;;;;27.58;13.13;;;;;;;30.69;66.11;100632.44;5109975;27;67469;-41
2023/05/26 07:10:30;;;;;;;24.33;13.80;;;;;;;30.65;70.52;100602.28;5121003;27;70796;-42
2023/05/26 07:13:01;;;;;;;25.00;15.82;;;;;;;30.90;72.63;100614.94;5099235;27;65047;-39
2023/05/26 07:15:36;;;;;;;27.23;15.93;;;;;;;30.38;73.68;100509.72;5111041;27;70120;-41
2023/05/26 07:18:10;;;;;;;22.23;16.02;;;;;;;31.05;73.61;100601.81;5113863;27;65622;-40
2023/05/26 07:20:41;;;;;;;24.40;14.88;;;;;;;31.16;72.55;100592.91;5109876;27;69317;-40
2023/05/26 07:23:18;;;;;;;21.38;15.73;;;;;;;31.27;71.84;100593.22;5110791;27;66308;-42
2023/05/26 07:25:49;;;;;;;23.97;15.47;;;;;;;31.33;71.89;100595.81;5115913;27;69912;-40
2023/05/26 07:28:20;;;;;;;24.83;15.10;;;;;;;31.42;71.85;100590.91;5096875;27;67128;-39
2023/05/26 07:30:51;;;;;;;23.88;15.70;;;;;;;31.48;72.01;100595.44;5103907;27;70306;-39
2023/05/26 07:33:29;;;;;;;32.80;14.68;;;;;;;31.57;71.69;100609.50;5110651;27;66765;-38
2023/05/26 07:36:01;;;;;;;23.10;14.77;;;;;;;31.59;71.50;100616.34;5115898;27;69756;-40
2023/05/26 07:38:32;;;;;;;24.52;13.23;;;;;;;31.43;71.17;100576.31;5118501;27;66025;-39
2023/05/26 07:41:04;;;;;;;17.08;11.93;;;;;;;31.55;70.82;100600.75;5112801;27;69272;-41
2023/05/26 07:43:35;;;;;;;22.08;13.13;;;;;;;31.69;70.85;100623.06;5107119;27;65147;-39
2023/05/26 07:46:06;;;;;;;18.87;12.43;;;;;;;31.72;70.67;100622.59;5111458;27;70086;-39
2023/05/26 07:48:37;;;;;;;15.10;12.05;;;;;;;31.72;70.26;100612.56;5109355;27;65761;-39
2023/05/26 07:51:08;;;;;;;14.50;12.43;;;;;;;31.74;70.00;100617.78;5107534;27;70655;-38
2023/05/26 07:53:38;;;;;;;29.10;12.60;;;;;;;31.75;70.54;100614.00;5119395;27;66167;-38
2023/05/26 07:56:10;;;;;;;15.70;11.60;;;;;;;31.80;70.74;100611.41;5109020;27;70444;-41
2023/05/26 07:58:40;;;;;;;19.05;11.45;;;;;;;31.81;69.62;100621.19;5105228;27;66490;-40
2023/05/26 08:01:12;;;;;;;16.63;11.07;;;;;;;31.82;70.05;100622.88;5113065;27;70068;-40
2023/05/26 08:03:42;;;;;;;16.50;10.90;;;;;;;31.87;70.01;100614.84;5111260;27;65696;-39
2023/05/26 08:06:14;;;;;;;23.40;9.85;;;;;;;31.70;69.89;100575.91;5109238;27;70143;-40
2023/05/26 08:08:55;;;;;;;12.63;10.23;;;;;;;31.88;69.54;100600.22;5105495;27;66449;-38
2023/05/26 08:11:26;;;;;;;15.25;10.57;;;;;;;31.86;69.89;100602.34;5110839;27;70363;-42
2023/05/26 08:13:58;;;;;;;19.83;11.30;;;;;;;31.75;69.73;100571.44;5109866;27;66125;-39
2023/05/26 08:16:29;;;;;;;22.52;11.27;;;;;;;31.92;69.50;100601.44;5107700;27;70574;-40
2023/05/26 08:19:01;;;;;;;13.60;10.80;;;;;;;31.92;69.10;100598.72;5113055;27;66124;-40
2023/05/26 08:21:32;;;;;;;22.47;11.17;;;;;;;31.89;68.84;100596.44;5117153;27;68971;-39
2023/05/26 08:24:03;;;;;;;17.02;11.70;;;;;;;31.81;68.82;100594.91;5112297;27;65934;-40
2023/05/26 08:26:34;;;;;;;21.47;11.03;;;;;;;31.90;69.73;100606.25;5111754;27;69970;-40
2023/05/26 08:29:06;;;;;;;19.30;10.93;;;;;;;31.87;69.25;100598.56;5111297;27;65670;-40
2023/05/26 08:31:37;;;;;;;16.25;10.77;;;;;;;31.81;69.39;100597.59;5100652;27;70059;-40
2023/05/26 08:34:08;;;;;;;18.25;11.00;;;;;;;31.90;68.72;100616.25;5110360;27;65669;-39
2023/05/26 08:36:39;;;;;;;13.80;10.40;;;;;;;31.70;69.27;100603.03;5106935;27;70197;-40
2023/05/26 08:39:10;;;;;;;20.27;11.77;;;;;;;31.86;67.76;100632.19;5108741;27;66094;-40
2023/05/26 08:42:01;;;;;;;29.10;12.00;;;;;;;31.70;68.49;100624.72;5108524;27;69603;-40
2023/05/26 08:44:33;;;;;;;20.23;11.38;;;;;;;31.72;67.78;100622.59;5106009;27;66459;-40
2023/05/26 08:47:05;;;;;;;23.63;10.55;;;;;;;31.70;68.07;100635.56;5108314;27;70499;-39
2023/05/26 08:49:41;;;;;;;20.90;11.82;;;;;;;31.73;67.01;100656.78;5112987;27;67979;-39
2023/05/26 08:52:14;;;;;;;14.32;10.57;;;;;;;31.67;67.49;100646.88;5108473;27;70695;-39
2023/05/26 08:54:45;;;;;;;11.98;9.25;;;;;;;31.48;66.47;100611.72;5103825;27;65833;-39
2023/05/26 08:57:19;;;;;;;14.77;8.25;;;;;;;31.58;66.50;100641.78;5111395;27;70308;-39
2023/05/26 08:59:51;;;;;;;9.55;8.70;;;;;;;31.64;66.46;100642.72;5110735;27;66469;-41
2023/05/26 09:02:23;;;;;;;14.75;8.85;;;;;;;31.41;66.40;100615.56;5107390;27;70383;-39
2023/05/26 09:04:54;;;;;;;13.20;8.37;;;;;;;31.49;66.18;100635.03;5110131;27;66447;-42
2023/05/26 09:07:25;;;;;;;9.10;8.30;;;;;;;31.03;66.25;100541.63;5108784;27;70011;-40
2023/05/26 09:10:21;;;;;;;18.05;8.25;;;;;;;30.77;66.49;100512.16;5110158;27;65431;-40
2023/05/26 09:13:21;;;;;;;18.17;9.93;;;;;;;31.39;67.75;100621.19;5106794;27;71691;-38
2023/05/26 09:15:54;;;;;;;12.38;9.65;;;;;;;31.32;68.08;100571.66;5096535;27;65781;-38
2023/05/26 09:18:45;;;;;;;14.07;8.90;;;;;;;31.55;68.75;100596.16;5097963;27;70015;-39
2023/05/26 09:21:17;;;;;;;9.20;8.25;;;;;;;31.52;69.01;100588.47;5110563;27;66390;-39
2023/05/26 09:23:57;;;;;;;17.77;10.70;;;;;;;31.01;67.47;100513.97;5111669;27;70087;-42
2023/05/26 09:26:32;;;;;;;14.27;10.18;;;;;;;31.60;67.36;100620.69;5111214;27;65472;-40
2023/05/26 09:29:06;;;;;;;20.20;10.15;;;;;;;31.57;66.81;100626.56;5107775;27;69524;-42
2023/05/26 09:31:45;;;;;;;19.73;10.05;;;;;;;31.47;66.88;100637.13;5115154;27;66732;-39
2023/05/26 09:34:21;;;;;;;17.50;11.50;;;;;;;31.37;67.49;100599.75;5107180;27;70226;-40
2023/05/26 09:36:51;;;;;;;13.18;11.50;;;;;;;31.45;67.00;100620.28;5101230;27;65642;-39
2023/05/26 09:39:32;;;;;;;15.85;10.13;;;;;;;30.66;67.17;100506.47;5110001;27;69906;-39
2023/05/26 09:42:08;;;;;;;14.32;10.85;;;;;;;31.38;67.57;100627.69;5103073;27;65581;-39
2023/05/26 09:44:39;;;;;;;21.92;11.00;;;;;;;31.38;67.62;100627.69;5108938;27;69975;-40
2023/05/26 09:47:14;;;;;;;14.88;10.05;;;;;;;31.32;67.37;100623.16;5104662;27;66608;-39
2023/05/26 09:49:45;;;;;;;12.80;10.10;;;;;;;31.38;68.04;100649.38;5108170;27;70145;-40
2023/05/26 09:52:16;;;;;;;16.55;8.70;;;;;;;31.42;68.01;100650.56;5114037;27;66520;-39
2023/05/26 09:54:47;;;;;;;13.98;10.10;;;;;;;31.29;68.41;100629.88;5114750;27;69454;-38
2023/05/26 09:57:18;;;;;;;17.60;10.85;;;;;;;31.45;68.61;100644.66;5112077;27;66576;-41
2023/05/26 09:59:53;;;;;;;16.35;10.07;;;;;;;31.14;68.95;100600.44;5111755;27;69890;-43
2023/05/26 10:02:25;;;;;;;14.90;10.60;;;;;;;31.42;69.36;100644.31;5107728;27;66145;-37
2023/05/26 10:04:58;;;;;;;13.90;11.38;;;;;;;30.51;68.91;100495.22;5119166;27;70227;-39
2023/05/26 10:07:31;;;;;;;20.63;11.25;;;;;;;31.26;69.15;100637.59;5107795;27;66032;-37
2023/05/26 10:10:03;;;;;;;16.38;10.93;;;;;;;31.33;69.30;100654.63;5107930;27;70299;-40
2023/05/26 10:12:35;;;;;;;29.85;10.82;;;;;;;31.39;69.57;100642.88;5112241;27;66109;-40
2023/05/26 10:15:07;;;;;;;22.90;11.95;;;;;;;31.12;70.15;100602.56;5129632;27;70757;-37
2023/05/26 10:17:39;;;;;;;28.70;12.02;;;;;;;31.30;69.94;100641.53;5115320;27;65903;-39
2023/05/26 10:20:11;;;;;;;24.85;11.63;;;;;;;31.32;70.49;100639.41;5116860;27;69742;-38
2023/05/26 10:23:07;;;;;;;18.35;11.23;;;;;;;31.23;70.63;100630.78;5112962;27;66335;-38
2023/05/26 10:25:57;;;;;;;27.48;10.88;;;;;;;31.22;70.52;100633.72;5108864;27;70498;-39
2023/05/26 10:28:52;;;;;;;23.58;10.60;;;;;;;30.49;70.57;100538.72;5105326;27;65297;-39
2023/05/26 10:31:36;;;;;;;27.63;10.07;;;;;;;31.22;70.68;100655.38;5108922;27;69766;-39
2023/05/26 10:34:46;;;;;;;15.98;9.85;;;;;;;31.13;70.51;100655.69;5114410;27;66035;-39
2023/05/26 10:37:18;;;;;;;16.20;9.48;;;;;;;31.29;70.90;100666.97;5114041;27;69912;-39
2023/05/26 10:39:49;;;;;;;22.53;9.40;;;;;;;31.28;71.14;100665.31;5113585;27;66310;-38
2023/05/26 10:42:21;;;;;;;15.45;9.52;;;;;;;31.42;71.26;100677.66;5111910;27;70097;-39
2023/05/26 10:44:54;;;;;;;13.23;9.70;;;;;;;31.46;71.07;100676.16;5114496;27;66300;-39
2023/05/26 10:47:30;;;;;;;23.08;10.68;;;;;;;30.70;70.63;100540.16;5105374;27;69964;-38
2023/05/26 10:50:01;;;;;;;13.63;12.18;;;;;;;31.48;70.83;100663.22;5116927;27;65391;-37
2023/05/26 10:52:50;;;;;;;19.03;12.27;;;;;;;31.47;70.58;100675.09;5110979;27;69983;-38
2023/05/26 10:55:31;;;;;;;13.80;10.70;;;;;;;31.39;69.64;100651.84;5115160;27;66394;-39
2023/05/26 10:58:41;;;;;;;11.30;10.15;;;;;;;31.32;69.17;100661.09;5111337;27;70059;-38
2023/05/26 11:01:16;;;;;;;14.15;10.95;;;;;;;31.05;69.79;100601.81;5107271;27;66708;-39
2023/05/26 11:03:49;;;;;;;13.80;10.18;;;;;;;31.39;69.47;100667.28;5111779;27;70118;-36
2023/05/26 11:07:10;;;;;;;25.77;10.25;;;;;;;31.10;69.49;100639.06;5111017;27;66852;-41
2023/05/26 11:09:59;;;;;;;18.02;10.18;;;;;;;30.59;70.20;100570.69;5113562;27;70544;-38
2023/05/26 11:12:47;;;;;;;11.07;9.23;;;;;;;30.78;70.23;100595.03;5107121;27;66324;-38
2023/05/26 11:15:28;;;;;;;15.68;10.13;;;;;;;31.45;70.74;100709.72;5109384;27;70026;-39
2023/05/26 11:18:05;;;;;;;13.82;10.35;;;;;;;31.51;70.87;100733.22;5114111;27;66507;-38
2023/05/26 11:20:37;;;;;;;16.27;10.07;;;;;;;31.56;70.92;100737.94;5112457;27;70184;-38
2023/05/26 11:23:08;;;;;;;19.92;9.52;;;;;;;31.58;71.39;100750.22;5115264;27;66176;-39
2023/05/26 11:25:49;;;;;;;11.88;10.02;;;;;;;31.63;72.39;100762.28;5113162;27;69394;-38
2023/05/26 11:28:21;;;;;;;12.23;9.85;;;;;;;31.49;72.01;100743.47;5119832;27;66099;-38
2023/05/26 11:30:52;;;;;;;23.65;8.85;;;;;;;31.65;72.18;100768.28;5110327;27;69907;-40
2023/05/26 11:33:23;;;;;;;21.10;10.30;;;;;;;31.44;70.65;100762.28;5106239;27;66255;-39
2023/05/26 11:35:54;;;;;;;29.00;9.90;;;;;;;31.26;70.92;100748.72;5111551;27;69449;-39
2023/05/26 11:38:25;;;;;;;21.98;9.95;;;;;;;31.46;71.61;100783.78;5110114;27;65202;-39
2023/05/26 11:40:57;;;;;;;13.75;10.07;;;;;;;31.52;72.25;100794.53;5109591;27;69236;-42
2023/05/26 11:43:28;;;;;;;17.90;10.27;;;;;;;31.52;72.29;100794.53;5107806;27;66456;-40
2023/05/26 11:46:07;;;;;;;14.02;9.38;;;;;;;30.72;71.86;100673.41;5116364;27;69977;-40